Time;durP1;ratioP1;P1;durP2;ratioP2;P2;SDS_P1;SDS_P2;PMS_P1;PMS_P2;Temp;Humidity;BMP_temperature;BMP_pressure;BME280_temperature;BME280_humidity;BME280_pressure;Samples;Min_cycle;Max_cycle;Signal;HPM_P1;HPM_P2
2024/03/25 00:01:21;;;;;;;;;;;;;;;22.66;49.78;93664.44;4929759;28;8615;-57
2024/03/25 00:04:20;;;;;;;;;;;;;;;22.65;49.65;93655.47;4948628;28;9324;-57
2024/03/25 00:06:52;;;;;;;;;;;;;;;22.63;49.92;93657.97;4918573;29;8800;-57
2024/03/25 00:09:30;;;;;;;;;;;;;;;22.64;49.50;93658.72;4912203;29;9545;-57
2024/03/25 00:12:09;;;;;;;;;;;;;;;22.63;49.99;93652.50;4918731;29;9589;-57
2024/03/25 00:15:13;;;;;;;;;;;;;;;22.62;49.58;93650.28;4920569;29;9210;-57
2024/03/25 00:18:24;;;;;;;;;;;;;;;22.60;49.58;93645.28;4940936;28;8964;-57
2024/03/25 00:21:06;;;;;;;;;;;;;;;22.62;49.48;93633.84;4923893;29;9108;-64
2024/03/25 00:23:32;;;;;;;;;;;;;;;22.61;49.88;93632.34;4933548;28;7229;-64
2024/03/25 00:25:57;;;;;;;;;;;;;;;22.60;49.21;93626.09;4919081;29;9457;-64
2024/03/25 00:28:23;;;;;;;;;;;;;;;22.59;49.84;93627.38;4921593;29;9117;-64
2024/03/25 00:30:49;;;;;;;;;;;;;;;22.59;49.66;93623.84;4934589;29;9313;-65
2024/03/25 00:33:47;;;;;;;;;;;;;;;22.59;49.53;93629.31;4969252;28;8579;-65
2024/03/25 00:36:23;;;;;;;;;;;;;;;22.61;49.66;93633.09;4965860;28;9474;-64
2024/03/25 00:39:01;;;;;;;;;;;;;;;22.62;49.65;93622.88;4971707;28;8813;-64
2024/03/25 00:41:41;;;;;;;;;;;;;;;22.63;49.55;93625.09;4958494;28;9433;-65
2024/03/25 00:44:07;;;;;;;;;;;;;;;22.62;49.58;93620.13;5035013;28;7241;-64
2024/03/25 00:46:33;;;;;;;;;;;;;;;22.60;49.42;93615.13;5050406;28;9654;-64
2024/03/25 00:49:01;;;;;;;;;;;;;;;22.61;49.13;93611.16;5041186;28;7507;-64
2024/03/25 00:51:34;;;;;;;;;;;;;;;22.61;49.48;93611.16;5040761;28;9218;-64
2024/03/25 00:54:00;;;;;;;;;;;;;;;22.59;49.39;93605.44;5046281;28;9498;-65
2024/03/25 00:56:54;;;;;;;;;;;;;;;22.60;49.48;93595.22;5034757;28;7759;-65
2024/03/25 00:59:32;;;;;;;;;;;;;;;22.58;49.70;93592.19;4965743;28;9083;-64
2024/03/25 01:02:14;;;;;;;;;;;;;;;22.59;49.70;93599.19;4973359;28;9091;-65
2024/03/25 01:04:50;;;;;;;;;;;;;;;22.59;49.27;93591.75;4992925;28;8731;-65
2024/03/25 01:07:25;;;;;;;;;;;;;;;22.59;49.36;93586.25;4985700;28;9470;-65
2024/03/25 01:10:27;;;;;;;;;;;;;;;22.60;49.58;93581.53;4983430;28;9839;-65
2024/03/25 01:13:38;;;;;;;;;;;;;;;22.61;49.58;93583.75;4948409;28;7120;-64
2024/03/25 01:16:07;;;;;;;;;;;;;;;22.58;49.23;93584.72;4940506;28;9762;-64
2024/03/25 01:18:41;;;;;;;;;;;;;;;22.60;49.10;93584.28;4958130;28;9395;-64
2024/03/25 01:21:09;;;;;;;;;;;;;;;22.61;49.64;93577.53;4958187;28;9453;-64
2024/03/25 01:24:26;;;;;;;;;;;;;;;22.58;49.28;93579.25;4957330;28;9206;-64
2024/03/25 01:26:52;;;;;;;;;;;;;;;22.57;49.20;93575.03;4937236;28;7302;-64
2024/03/25 01:29:20;;;;;;;;;;;;;;;22.57;49.21;93568.81;4947769;28;9075;-64
2024/03/25 01:31:51;;;;;;;;;;;;;;;22.56;49.33;93572.78;4956190;28;9045;-60
2024/03/25 01:34:33;;;;;;;;;;;;;;;22.57;49.51;93569.56;4936183;28;8036;-60
2024/03/25 01:36:59;;;;;;;;;;;;;;;22.58;49.13;93564.78;4921181;28;8993;-60
2024/03/25 01:39:37;;;;;;;;;;;;;;;22.56;49.45;93557.09;4933933;28;8773;-60
2024/03/25 01:42:20;;;;;;;;;;;;;;;22.59;49.28;93556.09;4941957;28;8695;-67
2024/03/25 01:44:46;;;;;;;;;;;;;;;22.57;49.66;93550.38;4937573;28;7062;-59
2024/03/25 01:47:15;;;;;;;;;;;;;;;22.59;49.25;93553.38;4983901;28;7230;-60
2024/03/25 01:49:41;;;;;;;;;;;;;;;22.59;49.44;93555.34;4977589;28;8897;-60
2024/03/25 01:52:36;;;;;;;;;;;;;;;22.60;49.14;93554.13;4973683;28;9405;-60
2024/03/25 01:55:17;;;;;;;;;;;;;;;22.61;49.01;93541.88;4956768;28;9735;-60
2024/03/25 01:58:19;;;;;;;;;;;;;;;22.60;49.14;93538.41;4957389;28;9506;-60
2024/03/25 02:01:13;;;;;;;;;;;;;;;22.58;49.01;93529.91;4950574;28;9429;-60
2024/03/25 02:03:59;;;;;;;;;;;;;;;22.58;49.08;93532.66;4924237;28;9067;-60
2024/03/25 02:06:58;;;;;;;;;;;;;;;22.56;49.09;93529.69;4954028;28;8216;-60
2024/03/25 02:09:39;;;;;;;;;;;;;;;22.58;49.61;93531.91;4935044;29;9227;-60
2024/03/25 02:12:07;;;;;;;;;;;;;;;22.57;49.08;93528.44;4950811;28;9449;-60
2024/03/25 02:14:49;;;;;;;;;;;;;;;22.57;49.24;93522.97;4939092;28;9602;-60
2024/03/25 02:17:34;;;;;;;;;;;;;;;22.57;49.09;93522.22;4938138;28;8281;-60
2024/03/25 02:20:01;;;;;;;;;;;;;;;22.54;49.29;93513.00;4937935;28;7044;-60
2024/03/25 02:22:27;;;;;;;;;;;;;;;22.55;49.46;93516.50;4931639;28;9731;-60
2024/03/25 02:25:08;;;;;;;;;;;;;;;22.56;49.09;93512.50;4932672;28;9072;-60
2024/03/25 02:27:51;;;;;;;;;;;;;;;22.57;49.15;93514.75;4937018;28;7386;-60
2024/03/25 02:30:16;;;;;;;;;;;;;;;22.58;49.23;93516.22;4937665;28;9154;-60
2024/03/25 02:32:53;;;;;;;;;;;;;;;22.57;49.06;93506.53;4918067;29;9046;-60
2024/03/25 02:35:32;;;;;;;;;;;;;;;22.56;49.35;93510.50;4974316;28;9018;-60
2024/03/25 02:38:32;;;;;;;;;;;;;;;22.55;48.99;93506.28;4973471;28;7130;-60
2024/03/25 02:41:09;;;;;;;;;;;;;;;22.56;49.47;93507.00;4956852;28;8773;-62
2024/03/25 02:43:35;;;;;;;;;;;;;;;22.55;48.92;93500.06;4964498;28;9038;-62
2024/03/25 02:46:01;;;;;;;;;;;;;;;22.55;48.78;93491.84;4974327;28;9132;-62
2024/03/25 02:48:27;;;;;;;;;;;;;;;22.56;49.18;93494.06;4978812;28;8962;-62
2024/03/25 02:50:53;;;;;;;;;;;;;;;22.55;48.97;93498.06;4974531;28;9410;-62
2024/03/25 02:53:27;;;;;;;;;;;;;;;22.56;48.96;93494.06;4979379;28;9194;-63
2024/03/25 02:55:53;;;;;;;;;;;;;;;22.57;49.30;93494.81;4960767;28;9443;-62
2024/03/25 02:58:19;;;;;;;;;;;;;;;22.55;49.16;93492.59;5006026;28;8208;-63
2024/03/25 03:00:46;;;;;;;;;;;;;;;22.56;49.12;93496.06;4974593;28;9109;-62
2024/03/25 03:03:13;;;;;;;;;;;;;;;22.57;48.84;93494.81;4987460;28;8734;-62
2024/03/25 03:05:41;;;;;;;;;;;;;;;22.56;48.87;93501.53;4992532;28;8672;-62
2024/03/25 03:08:17;;;;;;;;;;;;;;;22.53;49.02;93493.09;4979522;28;9103;-62
2024/03/25 03:10:57;;;;;;;;;;;;;;;22.51;48.94;93497.59;4978934;28;7118;-62
2024/03/25 03:13:43;;;;;;;;;;;;;;;22.53;49.20;93495.09;4980475;28;9446;-63
2024/03/25 03:16:13;;;;;;;;;;;;;;;22.53;49.14;93495.09;4979841;28;9263;-62
2024/03/25 03:18:40;;;;;;;;;;;;;;;22.53;48.45;93489.63;5038325;28;9357;-62
2024/03/25 03:21:12;;;;;;;;;;;;;;;22.53;48.85;93484.16;5054879;28;9139;-62
2024/03/25 03:24:03;;;;;;;;;;;;;;;22.54;48.92;93491.09;5043991;28;9492;-62
2024/03/25 03:26:32;;;;;;;;;;;;;;;22.52;48.51;93486.13;5048219;28;8704;-62
2024/03/25 03:29:27;;;;;;;;;;;;;;;22.52;48.96;93477.91;5037949;28;8850;-62
2024/03/25 03:31:53;;;;;;;;;;;;;;;22.52;49.18;93480.66;4978286;28;9031;-62
2024/03/25 03:34:21;;;;;;;;;;;;;;;22.51;48.96;93470.19;4976266;28;9110;-62
2024/03/25 03:36:46;;;;;;;;;;;;;;;22.50;49.22;93477.69;4977423;28;9390;-63
2024/03/25 03:39:13;;;;;;;;;;;;;;;22.50;48.81;93482.41;4975447;28;8716;-62
2024/03/25 03:41:39;;;;;;;;;;;;;;;22.51;49.16;93476.41;4976712;28;9465;-62
2024/03/25 03:44:05;;;;;;;;;;;;;;;22.50;49.24;93479.69;4984011;28;9063;-62
2024/03/25 03:46:31;;;;;;;;;;;;;;;22.50;49.00;93474.94;4995020;28;9068;-62
2024/03/25 03:48:59;;;;;;;;;;;;;;;22.47;48.75;93470.47;4975937;28;9122;-63
2024/03/25 03:51:25;;;;;;;;;;;;;;;22.48;48.98;93463.75;4994763;28;7344;-60
2024/03/25 03:54:15;;;;;;;;;;;;;;;22.48;49.07;93461.00;4979233;28;9077;-61
2024/03/25 03:56:56;;;;;;;;;;;;;;;22.49;49.37;93465.22;4993899;28;9322;-60
2024/03/25 03:59:26;;;;;;;;;;;;;;;22.50;49.03;93468.72;4970107;28;9380;-61
2024/03/25 04:02:13;;;;;;;;;;;;;;;22.49;49.01;93472.69;4972182;28;8774;-61
2024/03/25 04:04:41;;;;;;;;;;;;;;;22.49;49.12;93472.69;4983138;28;9076;-60
2024/03/25 04:07:26;;;;;;;;;;;;;;;22.46;48.86;93460.78;4964631;28;9610;-60
2024/03/25 04:10:19;;;;;;;;;;;;;;;22.46;48.68;93455.31;5043677;28;9508;-60
2024/03/25 04:12:55;;;;;;;;;;;;;;;22.49;48.90;93456.25;5053772;28;8501;-60
2024/03/25 04:15:22;;;;;;;;;;;;;;;22.47;49.03;93453.28;5038376;28;9289;-61
2024/03/25 04:17:53;;;;;;;;;;;;;;;22.46;49.84;93449.81;5054427;28;9131;-60
2024/03/25 04:21:06;;;;;;;;;;;;;;;22.46;49.00;93457.28;5052339;28;8608;-61
2024/03/25 04:24:25;;;;;;;;;;;;;;;22.48;48.75;93449.31;5038732;28;9039;-60
2024/03/25 04:26:51;;;;;;;;;;;;;;;22.46;48.67;93452.56;5061214;28;8730;-60
2024/03/25 04:29:44;;;;;;;;;;;;;;;22.47;49.04;93456.03;5049335;28;9447;-60
2024/03/25 04:32:21;;;;;;;;;;;;;;;22.46;49.01;93454.56;5042714;28;9397;-60
2024/03/25 04:35:08;;;;;;;;;;;;;;;22.46;48.84;93457.28;5042530;28;8942;-61
2024/03/25 04:38:15;;;;;;;;;;;;;;;22.46;49.11;93449.06;5047100;28;9055;-60
2024/03/25 04:40:51;;;;;;;;;;;;;;;22.41;48.88;93452.59;4997444;28;9175;-61
2024/03/25 04:43:17;;;;;;;;;;;;;;;22.44;49.23;93451.59;4997631;28;9048;-61
2024/03/25 04:45:46;;;;;;;;;;;;;;;22.42;48.94;93451.38;4996806;28;7889;-61
2024/03/25 04:48:12;;;;;;;;;;;;;;;22.41;49.10;93453.34;5014431;28;8745;-60
2024/03/25 04:50:38;;;;;;;;;;;;;;;22.43;48.77;93452.84;4993698;28;9543;-61
2024/03/25 04:53:15;;;;;;;;;;;;;;;22.40;48.80;93445.66;4997540;28;9312;-61
2024/03/25 04:56:12;;;;;;;;;;;;;;;22.44;49.06;93446.13;4997485;28;8734;-61
2024/03/25 04:58:54;;;;;;;;;;;;;;;22.41;48.97;93441.66;4990292;28;8589;-60
2024/03/25 05:01:40;;;;;;;;;;;;;;;22.44;48.96;93443.38;4981946;28;7502;-61
2024/03/25 05:04:09;;;;;;;;;;;;;;;22.43;48.78;93442.63;4974911;28;8720;-63
2024/03/25 05:06:35;;;;;;;;;;;;;;;22.45;49.21;93436.63;4984400;28;7318;-63
2024/03/25 05:09:25;;;;;;;;;;;;;;;22.51;50.95;93429.09;5003081;28;9461;-62
2024/03/25 05:12:11;;;;;;;;;;;;;;;22.67;53.27;93460.34;5015542;28;9546;-62
2024/03/25 05:14:41;;;;;;;;;;;;;;;22.98;59.41;93451.56;5029322;28;9021;-62
2024/03/25 05:17:31;;;;;;;;;;;;;;;23.41;57.83;93448.81;5021344;28;9335;-62
2024/03/25 05:20:06;;;;;;;;;;;;;;;23.70;57.96;93448.69;5042146;28;7242;-61
2024/03/25 05:22:43;;;;;;;;;;;;;;;23.94;56.51;93453.31;5029205;28;8788;-62
2024/03/25 05:25:09;;;;;;;;;;;;;;;24.07;55.83;93447.91;5028069;28;9404;-61
2024/03/25 05:27:34;;;;;;;;;;;;;;;24.18;54.80;93442.25;5024754;28;8593;-63
2024/03/25 05:30:10;;;;;;;;;;;;;;;24.28;53.95;93446.06;5029463;28;9412;-60
2024/03/25 05:33:05;;;;;;;;;;;;;;;24.36;52.84;93444.16;5024610;28;7245;-59
2024/03/25 05:35:36;;;;;;;;;;;;;;;24.40;50.19;93439.09;5030383;28;6852;-62
2024/03/25 05:38:07;;;;;;;;;;;;;;;24.37;50.46;93415.44;5066998;28;9055;-62
2024/03/25 05:40:54;;;;;;;;;;;;;;;23.95;47.02;93428.06;5051097;28;9075;-61
2024/03/25 05:43:20;;;;;;;;;;;;;;;23.48;48.38;93434.50;5046540;28;8669;-60
2024/03/25 05:45:51;;;;;;;;;;;;;;;23.20;48.80;93424.63;5041558;28;9466;-60
2024/03/25 05:48:19;;;;;;;;;;;;;;;23.07;48.68;93434.75;5052949;28;8781;-60
2024/03/25 05:50:56;;;;;;;;;;;;;;;22.85;46.04;93424.78;5044135;28;9026;-61
2024/03/25 05:53:49;;;;;;;;;;;;;;;22.68;47.52;93429.72;5045215;28;7252;-61
2024/03/25 05:56:32;;;;;;;;;;;;;;;22.68;56.05;93446.16;5036421;28;9520;-61
2024/03/25 05:59:01;;;;;;;;;;;;;;;23.05;58.90;93435.25;5049292;28;9170;-61
2024/03/25 06:02:03;;;;;;;;;;;;;;;23.50;56.23;93435.47;5050069;28;7140;-61
2024/03/25 06:04:29;;;;;;;;;;;;;;;23.78;58.27;93435.06;4981048;28;8939;-62
2024/03/25 06:07:06;;;;;;;;;;;;;;;24.01;57.30;93430.00;4976211;28;8245;-62
2024/03/25 06:09:33;;;;;;;;;;;;;;;24.12;48.68;93427.81;4976373;28;9076;-63
2024/03/25 06:12:13;;;;;;;;;;;;;;;24.16;51.19;93433.78;4974262;28;7345;-61
2024/03/25 06:14:49;;;;;;;;;;;;;;;24.20;50.36;93420.47;4973016;28;9451;-62
2024/03/25 06:17:17;;;;;;;;;;;;;;;24.25;51.12;93418.91;4961683;28;10034;-61
2024/03/25 06:20:01;;;;;;;;;;;;;;;24.28;51.21;93415.84;4976458;28;9124;-61
2024/03/25 06:22:26;;;;;;;;;;;;;;;24.30;51.83;93410.56;4977561;28;7036;-61
2024/03/25 06:24:53;;;;;;;;;;;;;;;24.34;51.09;93410.22;4971936;28;9446;-62
2024/03/25 06:27:19;;;;;;;;;;;;;;;24.35;51.27;93404.22;4973399;28;9649;-62
2024/03/25 06:29:46;;;;;;;;;;;;;;;24.37;51.51;93393.44;4972052;28;9397;-62
2024/03/25 06:35:00;;;;;;;;;;;;;;;24.40;50.83;93392.38;4981842;28;9469;-62
2024/03/25 06:37:26;;;;;;;;;;;;;;;24.41;50.42;93399.38;4973627;28;8651;-62
2024/03/25 06:39:53;;;;;;;;;;;;;;;24.42;51.52;93389.13;5040878;28;8826;-62
2024/03/25 06:42:26;;;;;;;;;;;;;;;24.42;52.33;93389.88;5040849;28;9550;-62
2024/03/25 06:44:54;;;;;;;;;;;;;;;24.41;47.29;93384.88;5040755;28;7315;-63
2024/03/25 06:47:20;;;;;;;;;;;;;;;24.41;46.56;93380.13;5062411;28;6955;-61
2024/03/25 06:49:45;;;;;;;;;;;;;;;24.38;46.71;93359.19;5048812;28;9440;-62
2024/03/25 06:52:29;;;;;;;;;;;;;;;23.85;46.15;93361.09;5047843;28;8848;-62
2024/03/25 06:55:30;;;;;;;;;;;;;;;23.35;47.18;93368.56;5033033;28;9080;-62
2024/03/25 06:58:07;;;;;;;;;;;;;;;23.08;47.73;93367.66;4973933;28;8780;-62
2024/03/25 07:00:46;;;;;;;;;;;;;;;22.94;48.86;93352.41;4975994;28;8727;-62
2024/03/25 07:03:27;;;;;;;;;;;;;;;22.84;48.84;93349.25;4962204;28;8583;-62
2024/03/25 07:06:00;;;;;;;;;;;;;;;22.83;49.40;93358.75;4957407;28;9450;-62
2024/03/25 07:11:58;;;;;;;;;;;;;;;22.78;50.11;93351.34;4948998;29;9041;-62
2024/03/25 07:14:41;;;;;;;;;;;;;;;22.77;49.75;93352.59;4934589;29;9130;-63
2024/03/25 07:17:27;;;;;;;;;;;;;;;22.60;44.32;93340.38;4918332;29;9073;-63
2024/03/25 07:20:10;;;;;;;;;;;;;;;22.06;39.94;93332.91;4937118;29;9090;-63
2024/03/25 07:22:47;;;;;;;;;;;;;;;21.55;38.85;93345.50;4934186;29;9420;-60
2024/03/25 07:25:27;;;;;;;;;;;;;;;21.29;37.74;93347.94;4940624;29;9542;-61
2024/03/25 07:27:57;;;;;;;;;;;;;;;21.20;37.02;93345.53;4919162;29;9695;-62
2024/03/25 07:31:08;;;;;;;;;;;;;;;21.24;38.06;93337.78;4935715;29;7488;-62
2024/03/25 07:33:49;;;;;;;;;;;;;;;21.37;38.50;93342.66;4961385;28;8501;-62
2024/03/25 07:36:18;;;;;;;;;;;;;;;21.52;38.72;93346.53;5012077;28;8750;-62
2024/03/25 07:38:54;;;;;;;;;;;;;;;21.69;38.82;93343.66;5015545;28;9003;-62
2024/03/25 07:41:25;;;;;;;;;;;;;;;21.80;38.79;93340.84;5014327;28;7018;-62
2024/03/25 07:43:51;;;;;;;;;;;;;;;21.98;39.29;93340.22;5012060;28;8829;-62
2024/03/25 07:46:17;;;;;;;;;;;;;;;22.13;39.40;93346.03;5009528;28;9029;-63
2024/03/25 07:48:43;;;;;;;;;;;;;;;22.29;39.14;93344.41;5021234;28;7311;-62
2024/03/25 07:51:09;;;;;;;;;;;;;;;22.44;39.13;93342.72;5040260;28;8774;-62
2024/03/25 07:53:44;;;;;;;;;;;;;;;22.62;39.51;93335.81;5035178;28;9315;-62
2024/03/25 07:56:19;;;;;;;;;;;;;;;22.79;39.55;93324.69;5069243;28;8653;-61
2024/03/25 07:58:59;;;;;;;;;;;;;;;22.96;39.39;93325.19;5043390;28;9479;-62
2024/03/25 08:01:31;;;;;;;;;;;;;;;23.07;39.06;93314.09;5051085;28;8934;-62
2024/03/25 08:03:58;;;;;;;;;;;;;;;23.26;39.14;93314.81;5055792;28;8701;-62
2024/03/25 08:06:24;;;;;;;;;;;;;;;23.40;39.27;93312.88;5038606;28;9139;-62
2024/03/25 08:08:56;;;;;;;;;;;;;;;23.51;39.20;93307.22;5047171;28;9433;-62
2024/03/25 08:11:33;;;;;;;;;;;;;;;23.63;39.00;93305.78;5051028;28;8672;-62
2024/03/25 08:14:09;;;;;;;;;;;;;;;23.72;38.96;93303.38;5043688;28;9441;-62
2024/03/25 08:16:49;;;;;;;;;;;;;;;23.75;38.70;93291.34;5046932;28;8212;-62
2024/03/25 08:19:25;;;;;;;;;;;;;;;23.84;39.20;93298.44;5050277;28;9541;-62
2024/03/25 08:21:53;;;;;;;;;;;;;;;23.89;39.41;93290.13;5055246;28;7687;-60
2024/03/25 08:24:38;;;;;;;;;;;;;;;23.95;39.21;93287.25;5052863;28;7040;-60
2024/03/25 08:27:15;;;;;;;;;;;;;;;24.03;39.69;93290.13;5049685;28;9467;-60
2024/03/25 08:30:06;;;;;;;;;;;;;;;24.06;39.72;93291.84;5066509;28;9358;-60
2024/03/25 08:32:32;;;;;;;;;;;;;;;24.09;39.33;93282.56;5038892;28;9461;-60
2024/03/25 08:35:08;;;;;;;;;;;;;;;24.11;39.93;93280.75;5043127;28;7593;-60
2024/03/25 08:38:01;;;;;;;;;;;;;;;24.13;39.28;93275.47;5035536;28;9085;-60
2024/03/25 08:40:56;;;;;;;;;;;;;;;24.16;40.12;93268.94;5047076;28;9156;-60
2024/03/25 08:43:36;;;;;;;;;;;;;;;24.18;39.55;93271.16;5055148;28;9209;-60
2024/03/25 08:46:03;;;;;;;;;;;;;;;24.18;40.13;93271.16;5056953;28;9089;-60
2024/03/25 08:48:29;;;;;;;;;;;;;;;24.20;39.98;93274.13;5039626;28;7145;-60
2024/03/25 08:50:55;;;;;;;;;;;;;;;24.21;40.37;93261.84;5043191;28;9473;-61
2024/03/25 08:53:22;;;;;;;;;;;;;;;24.22;40.00;93249.59;5051392;28;7502;-60
2024/03/25 08:55:50;;;;;;;;;;;;;;;24.22;40.36;93249.59;5040407;28;9662;-60
2024/03/25 08:58:54;;;;;;;;;;;;;;;24.25;40.43;93257.50;5039278;28;8860;-60
2024/03/25 09:01:21;;;;;;;;;;;;;;;24.26;40.55;93247.25;4977134;28;9271;-60
2024/03/25 09:03:58;;;;;;;;;;;;;;;24.29;39.84;93244.22;4977669;28;9816;-60
2024/03/25 09:06:38;;;;;;;;;;;;;;;24.28;39.92;93237.22;4983563;28;9435;-60
2024/03/25 09:11:51;;;;;;;;;;;;;;;24.31;39.74;93238.94;4982840;28;7436;-60
2024/03/25 09:14:51;;;;;;;;;;;;;;;24.32;40.52;93225.91;4967094;28;9175;-60
2024/03/25 09:17:18;;;;;;;;;;;;;;;24.33;40.26;93232.88;4938514;28;9132;-60
2024/03/25 09:19:45;;;;;;;;;;;;;;;24.33;40.79;93228.16;4939395;28;9076;-60
2024/03/25 09:22:44;;;;;;;;;;;;;;;24.34;39.93;93229.59;4954525;28;9268;-60
2024/03/25 09:25:20;;;;;;;;;;;;;;;24.29;40.08;93216.75;4887082;29;9411;-60
2024/03/25 09:27:56;;;;;;;;;;;;;;;24.36;40.17;93231.84;4892084;29;9151;-60
2024/03/25 09:30:22;;;;;;;;;;;;;;;24.37;40.71;93228.56;4894463;29;7142;-62
2024/03/25 09:33:03;;;;;;;;;;;;;;;24.37;40.09;93228.56;4896521;29;8686;-62
2024/03/25 09:35:45;;;;;;;;;;;;;;;24.39;40.93;93226.00;4911904;28;9893;-62
2024/03/25 09:38:13;;;;;;;;;;;;;;;24.39;40.74;93217.78;4944038;28;9571;-62
2024/03/25 09:40:53;;;;;;;;;;;;;;;24.36;40.88;93216.06;4957711;28;7146;-62
2024/03/25 09:43:47;;;;;;;;;;;;;;;24.41;40.78;93223.47;4937806;28;9441;-62
2024/03/25 09:46:13;;;;;;;;;;;;;;;24.42;41.20;93224.97;4967037;28;9044;-62
2024/03/25 09:48:41;;;;;;;;;;;;;;;24.42;41.39;93211.22;4974061;28;7134;-62
2024/03/25 09:51:09;;;;;;;;;;;;;;;24.44;40.89;93218.94;4955671;28;8770;-62
2024/03/25 09:53:43;;;;;;;;;;;;;;;24.47;40.85;93206.84;4954270;28;7011;-62
2024/03/25 09:56:12;;;;;;;;;;;;;;;24.46;41.17;93203.38;4973477;28;9038;-62
2024/03/25 09:58:42;;;;;;;;;;;;;;;24.48;41.35;93202.84;4973606;28;9363;-62
2024/03/25 10:01:11;;;;;;;;;;;;;;;24.48;40.55;93192.59;5018952;28;9066;-62
2024/03/25 10:03:57;;;;;;;;;;;;;;;24.49;40.97;93185.81;5038280;28;8975;-62
2024/03/25 10:06:40;;;;;;;;;;;;;;;24.50;41.33;93181.06;5062853;28;9381;-62
2024/03/25 10:09:26;;;;;;;;;;;;;;;24.51;41.45;93177.78;5045790;28;8804;-62
2024/03/25 10:12:16;;;;;;;;;;;;;;;24.52;41.55;93170.28;5034429;28;7487;-62
2024/03/25 10:15:16;;;;;;;;;;;;;;;24.52;41.89;93157.28;5046916;28;7103;-62
2024/03/25 10:18:02;;;;;;;;;;;;;;;24.54;41.28;93154.00;5032784;28;9606;-62
2024/03/25 10:20:56;;;;;;;;;;;;;;;24.54;41.39;93151.25;5033317;28;9290;-62
2024/03/25 10:23:34;;;;;;;;;;;;;;;24.54;41.04;93143.75;5049783;28;9444;-64
2024/03/25 10:26:00;;;;;;;;;;;;;;;24.55;41.91;93147.97;5041214;28;9083;-61
2024/03/25 10:28:30;;;;;;;;;;;;;;;24.54;41.22;93135.50;5042348;28;8143;-61
2024/03/25 10:31:03;;;;;;;;;;;;;;;24.56;41.29;93135.69;5068749;28;8724;-62
2024/03/25 10:33:29;;;;;;;;;;;;;;;24.57;41.59;93141.94;5051357;28;9067;-62
2024/03/25 10:36:20;;;;;;;;;;;;;;;24.58;41.90;93141.41;5048396;28;8648;-62
2024/03/25 10:42:25;;;;;;;;;;;;;;;24.60;41.90;93141.59;5044626;28;7146;-68
2024/03/25 10:44:58;;;;;;;;;;;;;;;24.62;42.01;93135.59;5045772;28;9532;-68
2024/03/25 10:47:28;;;;;;;;;;;;;;;24.61;41.01;93137.59;5040024;28;9595;-67
2024/03/25 10:49:59;;;;;;;;;;;;;;;24.59;41.50;93131.16;5039640;28;9067;-69
2024/03/25 10:52:29;;;;;;;;;;;;;;;24.62;41.22;93117.06;5049309;28;9362;-68
2024/03/25 10:55:00;;;;;;;;;;;;;;;24.60;41.97;93119.59;5040516;28;7365;-68
2024/03/25 10:57:26;;;;;;;;;;;;;;;24.60;41.57;93114.09;5049089;28;9915;-69
2024/03/25 11:00:00;;;;;;;;;;;;;;;24.59;41.77;93101.66;5047417;28;9134;-68
2024/03/25 11:02:28;;;;;;;;;;;;;;;24.64;41.87;93100.75;5050730;28;9046;-68
2024/03/25 11:04:57;;;;;;;;;;;;;;;24.66;42.06;93095.47;5052207;28;8701;-68
2024/03/25 11:07:31;;;;;;;;;;;;;;;24.67;41.77;93088.69;5046042;28;7102;-67
2024/03/25 11:10:05;;;;;;;;;;;;;;;24.69;41.55;93091.66;5035012;28;9436;-68
2024/03/25 11:12:41;;;;;;;;;;;;;;;24.70;42.35;93073.16;5038841;28;9825;-68
2024/03/25 11:15:23;;;;;;;;;;;;;;;24.71;41.51;93072.59;5038058;28;9489;-67
2024/03/25 11:17:59;;;;;;;;;;;;;;;24.73;42.32;93070.06;5048218;28;9359;-68
2024/03/25 11:20:39;;;;;;;;;;;;;;;24.73;41.39;93061.81;5050861;28;9606;-68
2024/03/25 11:23:13;;;;;;;;;;;;;;;24.75;41.41;93046.81;5052880;28;9252;-67
2024/03/25 11:25:54;;;;;;;;;;;;;;;24.77;42.28;93041.53;5051915;28;9221;-68
2024/03/25 11:28:39;;;;;;;;;;;;;;;24.76;42.10;93040.78;5054822;28;9192;-67
2024/03/25 11:31:07;;;;;;;;;;;;;;;24.74;41.92;93021.31;5036252;28;8903;-67
2024/03/25 11:33:39;;;;;;;;;;;;;;;24.76;42.67;93023.53;5066444;28;9436;-67
2024/03/25 11:36:09;;;;;;;;;;;;;;;24.80;42.32;93018.44;5057057;28;8783;-67
2024/03/25 11:38:40;;;;;;;;;;;;;;;24.79;42.18;93014.22;5053914;28;9823;-68
2024/03/25 11:41:52;;;;;;;;;;;;;;;24.79;36.63;93014.97;5038621;28;7215;-72
2024/03/25 11:44:31;;;;;;;;;;;;;;;24.65;30.21;93011.53;5034484;28;7019;-68
2024/03/25 11:46:57;;;;;;;;;;;;;;;24.57;30.39;93010.72;5032377;28;8578;-71
2024/03/25 11:49:23;;;;;;;;;;;;;;;24.48;29.96;93011.19;5036681;28;8955;-72
2024/03/25 11:51:49;;;;;;;;;;;;;;;24.44;29.31;93008.06;5049411;28;9281;-60
2024/03/25 11:54:28;;;;;;;;;;;;;;;24.43;30.53;93000.31;5035488;28;9883;-60
2024/03/25 11:56:56;;;;;;;;;;;;;;;24.43;30.51;93003.81;5024169;28;7313;-61
2024/03/25 11:59:41;;;;;;;;;;;;;;;24.43;31.09;92998.31;5025778;28;9441;-61
2024/03/25 12:02:09;;;;;;;;;;;;;;;24.44;31.89;92988.81;5031988;28;8842;-60
2024/03/25 12:05:07;;;;;;;;;;;;;;;24.45;32.04;92976.53;5033462;28;8954;-61
2024/03/25 12:07:46;;;;;;;;;;;;;;;24.48;32.10;92980.97;4998211;28;8640;-61
2024/03/25 12:13:05;;;;;;;;;;;;;;;24.49;32.47;92959.72;5001695;28;8744;-60
2024/03/25 12:15:43;;;;;;;;;;;;;;;24.50;32.73;92961.94;4993283;28;9419;-60
2024/03/25 12:18:14;;;;;;;;;;;;;;;24.53;32.84;92952.59;4998071;28;6883;-60
2024/03/25 12:20:40;;;;;;;;;;;;;;;24.54;32.54;92940.31;5016831;28;9058;-61
2024/03/25 12:23:20;;;;;;;;;;;;;;;24.57;32.87;92939.25;5032151;28;9478;-61
2024/03/25 12:26:12;;;;;;;;;;;;;;;24.59;33.63;92936.72;5029793;28;8581;-60
2024/03/25 12:28:57;;;;;;;;;;;;;;;24.61;33.83;92933.41;5009878;28;7215;-60
2024/03/25 12:31:24;;;;;;;;;;;;;;;24.63;34.04;92928.09;5014843;28;9288;-60
2024/03/25 12:33:53;;;;;;;;;;;;;;;24.62;34.76;92907.41;5017577;28;9743;-60
2024/03/25 12:36:22;;;;;;;;;;;;;;;24.63;34.42;92909.59;5014690;28;9062;-60
2024/03/25 12:38:57;;;;;;;;;;;;;;;24.65;34.68;92909.81;5028877;28;9130;-61
2024/03/25 12:41:38;;;;;;;;;;;;;;;24.67;35.79;92909.25;5012411;28;9060;-60
2024/03/25 12:44:07;;;;;;;;;;;;;;;24.66;31.36;92896.81;5036804;28;7026;-60
2024/03/25 12:46:35;;;;;;;;;;;;;;;24.65;33.35;92887.06;5059375;28;9055;-60
2024/03/25 12:49:06;;;;;;;;;;;;;;;24.67;34.94;92885.25;5036660;28;9407;-60
2024/03/25 12:51:32;;;;;;;;;;;;;;;24.70;34.65;92875.94;5054306;28;7000;-61
2024/03/25 12:54:13;;;;;;;;;;;;;;;24.73;35.42;92868.59;5064231;28;9707;-60
2024/03/25 12:56:41;;;;;;;;;;;;;;;24.75;34.94;92860.56;5037423;28;9263;-60
2024/03/25 12:59:34;;;;;;;;;;;;;;;24.79;35.06;92852.72;5051977;28;9074;-61
2024/03/25 13:02:15;;;;;;;;;;;;;;;24.83;35.62;92852.38;5009231;28;9432;-61
2024/03/25 13:05:01;;;;;;;;;;;;;;;24.81;35.38;92833.69;5023037;28;8692;-61
2024/03/25 13:07:29;;;;;;;;;;;;;;;24.89;35.71;92833.69;5015028;28;9115;-61
2024/03/25 13:10:30;;;;;;;;;;;;;;;24.93;35.68;92831.31;5014987;28;9045;-61
2024/03/25 13:13:16;;;;;;;;;;;;;;;24.94;36.13;92832.81;4974920;28;9004;-61
2024/03/25 13:16:06;;;;;;;;;;;;;;;25.00;36.57;92827.88;4977698;28;9787;-61
2024/03/25 13:18:50;;;;;;;;;;;;;;;25.02;36.01;92828.06;4983521;28;8739;-61
2024/03/25 13:21:16;;;;;;;;;;;;;;;25.00;36.41;92823.13;4978712;28;7693;-62
2024/03/25 13:24:47;;;;;;;;;;;;;;;25.04;35.85;92812.50;4991600;28;7512;-61
2024/03/25 13:27:55;;;;;;;;;;;;;;;25.07;36.69;92807.94;4982949;28;9079;-61
2024/03/25 13:30:33;;;;;;;;;;;;;;;25.11;36.54;92808.31;4966924;28;9442;-61
2024/03/25 13:33:13;;;;;;;;;;;;;;;25.12;36.50;92799.50;4980033;28;8948;-65
2024/03/25 13:35:40;;;;;;;;;;;;;;;25.14;37.19;92790.72;4986353;28;8590;-65
2024/03/25 13:38:06;;;;;;;;;;;;;;;25.15;36.34;92786.66;4992650;28;9318;-61
2024/03/25 13:40:46;;;;;;;;;;;;;;;25.17;37.30;92784.84;5001951;28;9400;-61
2024/03/25 13:43:24;;;;;;;;;;;;;;;25.21;36.85;92785.22;5021946;28;9229;-62
2024/03/25 13:45:50;;;;;;;;;;;;;;;25.19;36.70;92781.53;4997546;28;8868;-61
2024/03/25 13:48:16;;;;;;;;;;;;;;;25.20;37.21;92783.75;5048451;28;9903;-62
2024/03/25 13:50:45;;;;;;;;;;;;;;;25.27;37.51;92779.56;5037742;28;8409;-61
2024/03/25 13:53:41;;;;;;;;;;;;;;;25.29;37.71;92768.75;5036390;28;9149;-61
2024/03/25 13:56:07;;;;;;;;;;;;;;;25.30;37.76;92764.69;5050640;28;9086;-61
2024/03/25 13:59:05;;;;;;;;;;;;;;;25.33;37.34;92758.84;5041757;28;9667;-62
2024/03/25 14:01:31;;;;;;;;;;;;;;;25.37;37.95;92750.97;4972122;28;9006;-62
2024/03/25 14:04:30;;;;;;;;;;;;;;;25.39;37.37;92744.91;4979415;28;9059;-61